sensor_id;sensor_type;location;lat;lon;timestamp;P1;durP1;ratioP1;P2;durP2;ratioP2
353;SDS011;165;53.592;10.044;2022-08-19T00:00:24;19.27;;;13.60;;
353;SDS011;165;53.592;10.044;2022-08-19T00:02:51;14.10;;;13.40;;
353;SDS011;165;53.592;10.044;2022-08-19T00:05:17;15.10;;;14.13;;
353;SDS011;165;53.592;10.044;2022-08-19T00:07:43;14.60;;;13.50;;
353;SDS011;165;53.592;10.044;2022-08-19T00:10:10;21.10;;;17.10;;
353;SDS011;165;53.592;10.044;2022-08-19T00:12:37;18.47;;;17.57;;
353;SDS011;165;53.592;10.044;2022-08-19T00:15:04;21.60;;;18.93;;
353;SDS011;165;53.592;10.044;2022-08-19T00:17:31;22.47;;;19.27;;
353;SDS011;165;53.592;10.044;2022-08-19T00:19:56;25.80;;;22.00;;
353;SDS011;165;53.592;10.044;2022-08-19T00:22:22;27.23;;;21.87;;
353;SDS011;165;53.592;10.044;2022-08-19T00:24:47;24.50;;;21.33;;
353;SDS011;165;53.592;10.044;2022-08-19T00:27:13;23.40;;;22.20;;
353;SDS011;165;53.592;10.044;2022-08-19T00:29:38;22.17;;;20.00;;
353;SDS011;165;53.592;10.044;2022-08-19T00:32:04;20.37;;;19.30;;
353;SDS011;165;53.592;10.044;2022-08-19T00:34:30;22.97;;;19.30;;
353;SDS011;165;53.592;10.044;2022-08-19T00:36:55;24.17;;;21.63;;
353;SDS011;165;53.592;10.044;2022-08-19T00:39:22;21.90;;;19.13;;
353;SDS011;165;53.592;10.044;2022-08-19T00:41:49;24.80;;;21.00;;
353;SDS011;165;53.592;10.044;2022-08-19T00:44:17;20.60;;;19.00;;
353;SDS011;165;53.592;10.044;2022-08-19T00:46:48;26.73;;;20.70;;
353;SDS011;165;53.592;10.044;2022-08-19T00:49:16;22.73;;;19.63;;
353;SDS011;165;53.592;10.044;2022-08-19T00:51:48;27.03;;;19.30;;
353;SDS011;165;53.592;10.044;2022-08-19T00:54:17;24.70;;;21.97;;
353;SDS011;165;53.592;10.044;2022-08-19T00:56:43;24.60;;;20.00;;
353;SDS011;165;53.592;10.044;2022-08-19T00:59:09;26.17;;;21.30;;
353;SDS011;165;53.592;10.044;2022-08-19T01:01:39;22.93;;;21.57;;
353;SDS011;165;53.592;10.044;2022-08-19T01:04:07;27.43;;;19.50;;
353;SDS011;165;53.592;10.044;2022-08-19T01:06:33;28.13;;;21.10;;
353;SDS011;165;53.592;10.044;2022-08-19T01:09:02;26.50;;;20.70;;
353;SDS011;165;53.592;10.044;2022-08-19T01:11:29;23.50;;;20.80;;
353;SDS011;165;53.592;10.044;2022-08-19T01:13:57;21.67;;;20.57;;
353;SDS011;165;53.592;10.044;2022-08-19T01:16:24;21.60;;;20.37;;
353;SDS011;165;53.592;10.044;2022-08-19T01:18:51;37.83;;;22.70;;
353;SDS011;165;53.592;10.044;2022-08-19T01:21:37;24.37;;;20.23;;
353;SDS011;165;53.592;10.044;2022-08-19T01:24:08;22.90;;;19.00;;
353;SDS011;165;53.592;10.044;2022-08-19T01:26:38;20.87;;;18.90;;
353;SDS011;165;53.592;10.044;2022-08-19T01:29:09;22.87;;;19.43;;
353;SDS011;165;53.592;10.044;2022-08-19T01:31:35;21.73;;;17.67;;
353;SDS011;165;53.592;10.044;2022-08-19T01:34:02;19.77;;;17.90;;
353;SDS011;165;53.592;10.044;2022-08-19T01:36:30;21.97;;;19.20;;
353;SDS011;165;53.592;10.044;2022-08-19T01:39:03;20.73;;;18.70;;
353;SDS011;165;53.592;10.044;2022-08-19T01:41:31;21.60;;;19.30;;
353;SDS011;165;53.592;10.044;2022-08-19T01:43:57;21.00;;;19.47;;
353;SDS011;165;53.592;10.044;2022-08-19T01:46:23;24.13;;;18.17;;
353;SDS011;165;53.592;10.044;2022-08-19T01:48:49;19.57;;;17.47;;
353;SDS011;165;53.592;10.044;2022-08-19T01:51:14;18.60;;;16.43;;
353;SDS011;165;53.592;10.044;2022-08-19T01:53:40;25.03;;;18.53;;
353;SDS011;165;53.592;10.044;2022-08-19T01:56:06;21.77;;;19.00;;
353;SDS011;165;53.592;10.044;2022-08-19T01:58:36;21.33;;;18.63;;
353;SDS011;165;53.592;10.044;2022-08-19T02:01:05;22.37;;;18.47;;
353;SDS011;165;53.592;10.044;2022-08-19T02:03:32;22.63;;;17.70;;
353;SDS011;165;53.592;10.044;2022-08-19T02:05:59;23.47;;;18.10;;
353;SDS011;165;53.592;10.044;2022-08-19T02:08:27;19.17;;;17.77;;
353;SDS011;165;53.592;10.044;2022-08-19T02:10:54;27.47;;;20.17;;
353;SDS011;165;53.592;10.044;2022-08-19T02:13:19;26.63;;;21.20;;
353;SDS011;165;53.592;10.044;2022-08-19T02:15:45;25.67;;;21.07;;
353;SDS011;165;53.592;10.044;2022-08-19T02:18:10;27.47;;;22.60;;
353;SDS011;165;53.592;10.044;2022-08-19T02:20:36;27.60;;;20.50;;
353;SDS011;165;53.592;10.044;2022-08-19T02:23:03;28.50;;;21.30;;
353;SDS011;165;53.592;10.044;2022-08-19T02:25:29;29.70;;;21.43;;
353;SDS011;165;53.592;10.044;2022-08-19T02:27:55;32.27;;;20.70;;
353;SDS011;165;53.592;10.044;2022-08-19T02:30:20;25.93;;;20.97;;
353;SDS011;165;53.592;10.044;2022-08-19T02:32:46;24.73;;;20.50;;
353;SDS011;165;53.592;10.044;2022-08-19T02:35:13;25.50;;;19.10;;
353;SDS011;165;53.592;10.044;2022-08-19T02:37:39;27.40;;;21.20;;
353;SDS011;165;53.592;10.044;2022-08-19T02:40:24;26.63;;;20.17;;
353;SDS011;165;53.592;10.044;2022-08-19T02:42:50;25.53;;;19.70;;
353;SDS011;165;53.592;10.044;2022-08-19T02:45:16;30.80;;;20.80;;
353;SDS011;165;53.592;10.044;2022-08-19T02:47:41;25.10;;;21.47;;
353;SDS011;165;53.592;10.044;2022-08-19T02:50:07;26.10;;;22.20;;
353;SDS011;165;53.592;10.044;2022-08-19T02:52:33;26.23;;;20.83;;
353;SDS011;165;53.592;10.044;2022-08-19T02:54:59;33.43;;;23.20;;
353;SDS011;165;53.592;10.044;2022-08-19T02:57:24;29.70;;;21.30;;
353;SDS011;165;53.592;10.044;2022-08-19T02:59:50;33.30;;;23.87;;
353;SDS011;165;53.592;10.044;2022-08-19T03:02:17;32.43;;;24.03;;
353;SDS011;165;53.592;10.044;2022-08-19T03:04:42;32.43;;;23.30;;
353;SDS011;165;53.592;10.044;2022-08-19T03:07:08;36.53;;;23.63;;
353;SDS011;165;53.592;10.044;2022-08-19T03:09:37;32.87;;;23.30;;
353;SDS011;165;53.592;10.044;2022-08-19T03:12:03;34.77;;;24.30;;
353;SDS011;165;53.592;10.044;2022-08-19T03:14:30;36.10;;;23.20;;
353;SDS011;165;53.592;10.044;2022-08-19T03:16:56;29.63;;;22.60;;
353;SDS011;165;53.592;10.044;2022-08-19T03:19:22;44.13;;;24.47;;
353;SDS011;165;53.592;10.044;2022-08-19T03:21:48;32.43;;;22.97;;
353;SDS011;165;53.592;10.044;2022-08-19T03:24:15;35.70;;;24.77;;
353;SDS011;165;53.592;10.044;2022-08-19T03:26:43;32.83;;;22.10;;
353;SDS011;165;53.592;10.044;2022-08-19T03:29:10;33.03;;;22.80;;
353;SDS011;165;53.592;10.044;2022-08-19T03:31:37;28.93;;;21.97;;
353;SDS011;165;53.592;10.044;2022-08-19T03:34:03;35.60;;;24.07;;
353;SDS011;165;53.592;10.044;2022-08-19T03:36:29;30.23;;;22.03;;
353;SDS011;165;53.592;10.044;2022-08-19T03:38:59;31.87;;;21.73;;
353;SDS011;165;53.592;10.044;2022-08-19T03:41:36;31.60;;;22.70;;
353;SDS011;165;53.592;10.044;2022-08-19T03:44:03;30.97;;;22.10;;
353;SDS011;165;53.592;10.044;2022-08-19T03:46:30;29.00;;;21.43;;
353;SDS011;165;53.592;10.044;2022-08-19T03:48:58;35.80;;;23.77;;
353;SDS011;165;53.592;10.044;2022-08-19T03:51:26;38.10;;;24.53;;
353;SDS011;165;53.592;10.044;2022-08-19T03:53:55;34.50;;;23.27;;
353;SDS011;165;53.592;10.044;2022-08-19T03:56:22;36.37;;;25.63;;
353;SDS011;165;53.592;10.044;2022-08-19T03:58:47;31.00;;;23.47;;
353;SDS011;165;53.592;10.044;2022-08-19T04:01:22;35.87;;;23.83;;
353;SDS011;165;53.592;10.044;2022-08-19T04:03:50;33.83;;;24.33;;
353;SDS011;165;53.592;10.044;2022-08-19T04:06:17;35.77;;;22.60;;
353;SDS011;165;53.592;10.044;2022-08-19T04:08:51;35.97;;;23.77;;
353;SDS011;165;53.592;10.044;2022-08-19T04:11:19;34.37;;;22.80;;
353;SDS011;165;53.592;10.044;2022-08-19T04:13:47;29.77;;;21.17;;
353;SDS011;165;53.592;10.044;2022-08-19T04:16:14;28.47;;;20.17;;
353;SDS011;165;53.592;10.044;2022-08-19T04:18:39;32.77;;;21.47;;
353;SDS011;165;53.592;10.044;2022-08-19T04:21:06;32.23;;;21.10;;
353;SDS011;165;53.592;10.044;2022-08-19T04:23:33;38.00;;;23.50;;
353;SDS011;165;53.592;10.044;2022-08-19T04:26:03;33.53;;;21.77;;
353;SDS011;165;53.592;10.044;2022-08-19T04:28:28;31.47;;;20.90;;
353;SDS011;165;53.592;10.044;2022-08-19T04:30:54;29.73;;;21.37;;
353;SDS011;165;53.592;10.044;2022-08-19T04:33:24;35.53;;;22.17;;
353;SDS011;165;53.592;10.044;2022-08-19T04:35:51;29.80;;;22.30;;
353;SDS011;165;53.592;10.044;2022-08-19T04:38:18;30.30;;;23.07;;
353;SDS011;165;53.592;10.044;2022-08-19T04:40:46;28.13;;;20.77;;
353;SDS011;165;53.592;10.044;2022-08-19T04:43:31;30.80;;;21.77;;
353;SDS011;165;53.592;10.044;2022-08-19T04:45:58;34.50;;;24.10;;
353;SDS011;165;53.592;10.044;2022-08-19T04:48:30;44.77;;;26.27;;
353;SDS011;165;53.592;10.044;2022-08-19T04:50:56;33.70;;;24.23;;
353;SDS011;165;53.592;10.044;2022-08-19T04:53:24;56.63;;;30.00;;
353;SDS011;165;53.592;10.044;2022-08-19T04:55:51;33.20;;;24.33;;
353;SDS011;165;53.592;10.044;2022-08-19T04:58:17;37.20;;;24.80;;
353;SDS011;165;53.592;10.044;2022-08-19T05:00:43;34.90;;;25.40;;
353;SDS011;165;53.592;10.044;2022-08-19T05:03:08;40.50;;;26.40;;
353;SDS011;165;53.592;10.044;2022-08-19T05:05:38;35.97;;;25.90;;
353;SDS011;165;53.592;10.044;2022-08-19T05:08:05;37.63;;;27.20;;
353;SDS011;165;53.592;10.044;2022-08-19T05:10:30;41.80;;;26.67;;
353;SDS011;165;53.592;10.044;2022-08-19T05:12:56;36.67;;;25.37;;
353;SDS011;165;53.592;10.044;2022-08-19T05:15:22;36.07;;;25.53;;
353;SDS011;165;53.592;10.044;2022-08-19T05:17:48;39.30;;;28.20;;
353;SDS011;165;53.592;10.044;2022-08-19T05:20:46;34.70;;;26.57;;
353;SDS011;165;53.592;10.044;2022-08-19T05:23:30;47.30;;;28.93;;
353;SDS011;165;53.592;10.044;2022-08-19T05:25:55;41.07;;;28.37;;
353;SDS011;165;53.592;10.044;2022-08-19T05:28:21;37.60;;;27.20;;
353;SDS011;165;53.592;10.044;2022-08-19T05:30:47;38.83;;;29.00;;
353;SDS011;165;53.592;10.044;2022-08-19T05:33:13;42.60;;;27.10;;
353;SDS011;165;53.592;10.044;2022-08-19T05:35:39;38.73;;;26.80;;
353;SDS011;165;53.592;10.044;2022-08-19T05:38:05;33.93;;;25.40;;
353;SDS011;165;53.592;10.044;2022-08-19T05:40:36;37.67;;;28.10;;
353;SDS011;165;53.592;10.044;2022-08-19T05:43:04;38.00;;;28.57;;
353;SDS011;165;53.592;10.044;2022-08-19T05:45:30;39.60;;;29.00;;
353;SDS011;165;53.592;10.044;2022-08-19T05:47:55;34.53;;;28.97;;
353;SDS011;165;53.592;10.044;2022-08-19T05:50:21;33.60;;;27.20;;
353;SDS011;165;53.592;10.044;2022-08-19T05:52:47;36.33;;;25.37;;
353;SDS011;165;53.592;10.044;2022-08-19T05:55:12;37.37;;;26.93;;
353;SDS011;165;53.592;10.044;2022-08-19T05:57:38;43.57;;;28.73;;
353;SDS011;165;53.592;10.044;2022-08-19T06:00:04;37.13;;;25.93;;
353;SDS011;165;53.592;10.044;2022-08-19T06:02:36;35.53;;;24.67;;
353;SDS011;165;53.592;10.044;2022-08-19T06:05:03;31.17;;;25.07;;
353;SDS011;165;53.592;10.044;2022-08-19T06:07:32;35.97;;;26.70;;
353;SDS011;165;53.592;10.044;2022-08-19T06:09:57;36.70;;;26.27;;
353;SDS011;165;53.592;10.044;2022-08-19T06:12:23;38.53;;;28.67;;
353;SDS011;165;53.592;10.044;2022-08-19T06:14:53;32.33;;;26.03;;
353;SDS011;165;53.592;10.044;2022-08-19T06:17:19;41.33;;;27.00;;
353;SDS011;165;53.592;10.044;2022-08-19T06:19:47;35.47;;;26.60;;
353;SDS011;165;53.592;10.044;2022-08-19T06:22:14;31.30;;;25.30;;
353;SDS011;165;53.592;10.044;2022-08-19T06:24:41;31.87;;;24.83;;
353;SDS011;165;53.592;10.044;2022-08-19T06:27:06;32.03;;;24.97;;
353;SDS011;165;53.592;10.044;2022-08-19T06:29:32;36.90;;;25.53;;
353;SDS011;165;53.592;10.044;2022-08-19T06:31:59;31.50;;;24.23;;
353;SDS011;165;53.592;10.044;2022-08-19T06:34:25;34.10;;;26.87;;
353;SDS011;165;53.592;10.044;2022-08-19T06:36:53;33.50;;;25.07;;
353;SDS011;165;53.592;10.044;2022-08-19T06:39:21;30.00;;;24.37;;
353;SDS011;165;53.592;10.044;2022-08-19T06:41:49;35.33;;;25.30;;
353;SDS011;165;53.592;10.044;2022-08-19T06:44:20;34.57;;;26.53;;
353;SDS011;165;53.592;10.044;2022-08-19T06:46:48;32.63;;;25.47;;
353;SDS011;165;53.592;10.044;2022-08-19T06:49:14;35.30;;;26.07;;
353;SDS011;165;53.592;10.044;2022-08-19T06:51:41;37.23;;;26.80;;
353;SDS011;165;53.592;10.044;2022-08-19T06:54:09;32.33;;;25.53;;
353;SDS011;165;53.592;10.044;2022-08-19T06:56:35;37.30;;;28.03;;
353;SDS011;165;53.592;10.044;2022-08-19T06:59:03;37.67;;;28.20;;
353;SDS011;165;53.592;10.044;2022-08-19T07:01:33;38.73;;;28.00;;
353;SDS011;165;53.592;10.044;2022-08-19T07:04:02;36.07;;;27.90;;
353;SDS011;165;53.592;10.044;2022-08-19T07:06:28;41.20;;;31.30;;
353;SDS011;165;53.592;10.044;2022-08-19T07:08:56;37.90;;;27.70;;
353;SDS011;165;53.592;10.044;2022-08-19T07:11:23;42.37;;;29.47;;
353;SDS011;165;53.592;10.044;2022-08-19T07:13:48;37.00;;;26.40;;
353;SDS011;165;53.592;10.044;2022-08-19T07:16:15;36.43;;;26.50;;
353;SDS011;165;53.592;10.044;2022-08-19T07:18:44;34.40;;;28.00;;
353;SDS011;165;53.592;10.044;2022-08-19T07:21:14;38.23;;;30.20;;
353;SDS011;165;53.592;10.044;2022-08-19T07:23:46;46.63;;;33.10;;
353;SDS011;165;53.592;10.044;2022-08-19T07:26:18;49.23;;;29.17;;
353;SDS011;165;53.592;10.044;2022-08-19T07:28:48;42.17;;;30.20;;
353;SDS011;165;53.592;10.044;2022-08-19T07:31:15;42.50;;;28.03;;
353;SDS011;165;53.592;10.044;2022-08-19T07:33:45;42.80;;;28.00;;
353;SDS011;165;53.592;10.044;2022-08-19T07:36:13;40.47;;;29.20;;
353;SDS011;165;53.592;10.044;2022-08-19T07:38:42;32.50;;;25.90;;
353;SDS011;165;53.592;10.044;2022-08-19T07:41:11;35.27;;;27.07;;
353;SDS011;165;53.592;10.044;2022-08-19T07:43:38;38.70;;;29.47;;
353;SDS011;165;53.592;10.044;2022-08-19T07:46:05;39.70;;;26.43;;
353;SDS011;165;53.592;10.044;2022-08-19T07:48:30;34.43;;;26.10;;
353;SDS011;165;53.592;10.044;2022-08-19T07:50:58;35.90;;;27.63;;
353;SDS011;165;53.592;10.044;2022-08-19T07:53:27;32.23;;;26.47;;
353;SDS011;165;53.592;10.044;2022-08-19T07:55:53;27.90;;;25.63;;
353;SDS011;165;53.592;10.044;2022-08-19T07:58:19;32.73;;;25.50;;
353;SDS011;165;53.592;10.044;2022-08-19T08:00:47;32.63;;;24.80;;
353;SDS011;165;53.592;10.044;2022-08-19T08:03:16;32.40;;;25.97;;
353;SDS011;165;53.592;10.044;2022-08-19T08:05:43;30.30;;;24.13;;
353;SDS011;165;53.592;10.044;2022-08-19T08:08:28;27.67;;;24.20;;
353;SDS011;165;53.592;10.044;2022-08-19T08:11:13;30.20;;;24.17;;
353;SDS011;165;53.592;10.044;2022-08-19T08:13:40;33.97;;;24.20;;
353;SDS011;165;53.592;10.044;2022-08-19T08:16:06;33.77;;;24.57;;
353;SDS011;165;53.592;10.044;2022-08-19T08:18:34;33.70;;;25.30;;
353;SDS011;165;53.592;10.044;2022-08-19T08:21:06;29.53;;;24.83;;
353;SDS011;165;53.592;10.044;2022-08-19T08:23:32;27.27;;;22.97;;
353;SDS011;165;53.592;10.044;2022-08-19T08:25:59;28.80;;;23.53;;
353;SDS011;165;53.592;10.044;2022-08-19T08:28:28;25.47;;;21.30;;
353;SDS011;165;53.592;10.044;2022-08-19T08:30:57;24.17;;;22.00;;
353;SDS011;165;53.592;10.044;2022-08-19T08:33:25;28.90;;;20.80;;
353;SDS011;165;53.592;10.044;2022-08-19T08:35:52;28.33;;;20.67;;
353;SDS011;165;53.592;10.044;2022-08-19T08:38:18;23.57;;;20.93;;
353;SDS011;165;53.592;10.044;2022-08-19T08:43:35;21.97;;;19.10;;
353;SDS011;165;53.592;10.044;2022-08-19T08:48:54;32.47;;;21.50;;
353;SDS011;165;53.592;10.044;2022-08-19T08:51:26;29.83;;;21.00;;
353;SDS011;165;53.592;10.044;2022-08-19T08:54:14;25.73;;;20.40;;
353;SDS011;165;53.592;10.044;2022-08-19T08:56:42;27.83;;;22.50;;
353;SDS011;165;53.592;10.044;2022-08-19T08:59:26;27.57;;;20.90;;
353;SDS011;165;53.592;10.044;2022-08-19T09:01:57;25.13;;;19.63;;
353;SDS011;165;53.592;10.044;2022-08-19T09:04:23;24.50;;;19.50;;
353;SDS011;165;53.592;10.044;2022-08-19T09:09:38;29.83;;;19.03;;
353;SDS011;165;53.592;10.044;2022-08-19T09:12:14;35.23;;;21.07;;
353;SDS011;165;53.592;10.044;2022-08-19T09:14:54;21.13;;;16.60;;
353;SDS011;165;53.592;10.044;2022-08-19T09:17:26;20.20;;;17.47;;
353;SDS011;165;53.592;10.044;2022-08-19T09:22:50;21.73;;;17.90;;
353;SDS011;165;53.592;10.044;2022-08-19T09:25:20;19.43;;;16.30;;
353;SDS011;165;53.592;10.044;2022-08-19T09:27:47;18.40;;;16.37;;
353;SDS011;165;53.592;10.044;2022-08-19T09:30:18;22.77;;;16.93;;
353;SDS011;165;53.592;10.044;2022-08-19T09:32:49;24.77;;;18.37;;
353;SDS011;165;53.592;10.044;2022-08-19T09:35:17;22.20;;;17.33;;
353;SDS011;165;53.592;10.044;2022-08-19T09:37:47;28.73;;;20.17;;
353;SDS011;165;53.592;10.044;2022-08-19T09:40:13;27.47;;;19.43;;
353;SDS011;165;53.592;10.044;2022-08-19T09:42:38;21.60;;;17.93;;
353;SDS011;165;53.592;10.044;2022-08-19T09:45:04;22.57;;;17.00;;
353;SDS011;165;53.592;10.044;2022-08-19T09:47:30;18.00;;;15.80;;
353;SDS011;165;53.592;10.044;2022-08-19T09:49:57;20.67;;;16.17;;
353;SDS011;165;53.592;10.044;2022-08-19T09:52:22;23.80;;;16.70;;
353;SDS011;165;53.592;10.044;2022-08-19T09:54:51;26.93;;;16.70;;
353;SDS011;165;53.592;10.044;2022-08-19T09:57:17;19.67;;;16.50;;
353;SDS011;165;53.592;10.044;2022-08-19T09:59:43;19.77;;;16.23;;
353;SDS011;165;53.592;10.044;2022-08-19T10:02:09;18.20;;;16.07;;
353;SDS011;165;53.592;10.044;2022-08-19T10:04:35;18.40;;;15.67;;
353;SDS011;165;53.592;10.044;2022-08-19T10:07:20;18.30;;;15.03;;
353;SDS011;165;53.592;10.044;2022-08-19T10:09:46;17.87;;;14.30;;
353;SDS011;165;53.592;10.044;2022-08-19T10:12:12;19.53;;;15.43;;
353;SDS011;165;53.592;10.044;2022-08-19T10:14:40;19.63;;;15.20;;
353;SDS011;165;53.592;10.044;2022-08-19T10:17:05;21.87;;;14.70;;
353;SDS011;165;53.592;10.044;2022-08-19T10:19:31;24.13;;;17.70;;
353;SDS011;165;53.592;10.044;2022-08-19T10:22:02;19.60;;;15.37;;
353;SDS011;165;53.592;10.044;2022-08-19T10:24:29;16.40;;;15.20;;
353;SDS011;165;53.592;10.044;2022-08-19T10:26:55;22.53;;;19.17;;
353;SDS011;165;53.592;10.044;2022-08-19T10:29:21;27.80;;;18.47;;
353;SDS011;165;53.592;10.044;2022-08-19T10:31:47;21.20;;;17.50;;
353;SDS011;165;53.592;10.044;2022-08-19T10:34:13;20.07;;;15.97;;
353;SDS011;165;53.592;10.044;2022-08-19T10:36:38;22.87;;;15.90;;
353;SDS011;165;53.592;10.044;2022-08-19T10:39:08;23.83;;;18.80;;
353;SDS011;165;53.592;10.044;2022-08-19T10:41:36;22.70;;;19.20;;
353;SDS011;165;53.592;10.044;2022-08-19T10:44:05;24.17;;;17.13;;
353;SDS011;165;53.592;10.044;2022-08-19T10:46:36;19.33;;;15.90;;
353;SDS011;165;53.592;10.044;2022-08-19T10:49:06;21.97;;;17.87;;
353;SDS011;165;53.592;10.044;2022-08-19T10:51:32;22.10;;;17.63;;
353;SDS011;165;53.592;10.044;2022-08-19T10:54:16;20.63;;;17.27;;
353;SDS011;165;53.592;10.044;2022-08-19T10:56:42;24.03;;;17.73;;
353;SDS011;165;53.592;10.044;2022-08-19T10:59:18;18.13;;;16.67;;
353;SDS011;165;53.592;10.044;2022-08-19T11:01:46;22.43;;;19.00;;
353;SDS011;165;53.592;10.044;2022-08-19T11:04:12;23.30;;;19.60;;
353;SDS011;165;53.592;10.044;2022-08-19T11:06:41;25.17;;;20.25;;
353;SDS011;165;53.592;10.044;2022-08-19T11:09:08;24.13;;;20.57;;
353;SDS011;165;53.592;10.044;2022-08-19T11:11:34;20.60;;;18.20;;
353;SDS011;165;53.592;10.044;2022-08-19T11:14:05;19.17;;;16.43;;
353;SDS011;165;53.592;10.044;2022-08-19T11:16:35;22.70;;;19.13;;
353;SDS011;165;53.592;10.044;2022-08-19T11:19:02;26.60;;;18.33;;
353;SDS011;165;53.592;10.044;2022-08-19T11:21:38;24.53;;;18.93;;
353;SDS011;165;53.592;10.044;2022-08-19T11:24:07;24.87;;;21.40;;
353;SDS011;165;53.592;10.044;2022-08-19T11:26:36;21.23;;;17.17;;
353;SDS011;165;53.592;10.044;2022-08-19T11:29:04;21.07;;;16.37;;
353;SDS011;165;53.592;10.044;2022-08-19T11:31:32;20.77;;;17.57;;
353;SDS011;165;53.592;10.044;2022-08-19T11:34:02;21.33;;;18.50;;
353;SDS011;165;53.592;10.044;2022-08-19T11:36:29;23.67;;;19.90;;
353;SDS011;165;53.592;10.044;2022-08-19T11:38:57;21.23;;;20.13;;
353;SDS011;165;53.592;10.044;2022-08-19T11:41:23;20.07;;;19.07;;
353;SDS011;165;53.592;10.044;2022-08-19T11:43:49;19.33;;;18.07;;
353;SDS011;165;53.592;10.044;2022-08-19T11:46:17;17.70;;;16.53;;
353;SDS011;165;53.592;10.044;2022-08-19T11:48:42;17.73;;;15.32;;
353;SDS011;165;53.592;10.044;2022-08-19T11:51:09;16.40;;;14.37;;
353;SDS011;165;53.592;10.044;2022-08-19T11:53:40;16.13;;;13.80;;
353;SDS011;165;53.592;10.044;2022-08-19T11:56:07;17.57;;;15.50;;
353;SDS011;165;53.592;10.044;2022-08-19T11:58:34;17.90;;;16.33;;
353;SDS011;165;53.592;10.044;2022-08-19T12:01:00;19.08;;;15.90;;
353;SDS011;165;53.592;10.044;2022-08-19T12:03:26;17.73;;;16.07;;
353;SDS011;165;53.592;10.044;2022-08-19T12:05:52;21.83;;;15.70;;
353;SDS011;165;53.592;10.044;2022-08-19T12:08:18;14.30;;;13.60;;
353;SDS011;165;53.592;10.044;2022-08-19T12:10:44;17.80;;;14.90;;
353;SDS011;165;53.592;10.044;2022-08-19T12:13:13;14.20;;;13.50;;
353;SDS011;165;53.592;10.044;2022-08-19T12:15:40;18.00;;;13.20;;
353;SDS011;165;53.592;10.044;2022-08-19T12:18:09;13.43;;;12.57;;
353;SDS011;165;53.592;10.044;2022-08-19T12:20:38;20.70;;;13.80;;
353;SDS011;165;53.592;10.044;2022-08-19T12:23:08;23.40;;;22.20;;
353;SDS011;165;53.592;10.044;2022-08-19T12:25:34;18.30;;;14.47;;
353;SDS011;165;53.592;10.044;2022-08-19T12:28:15;17.33;;;15.43;;
353;SDS011;165;53.592;10.044;2022-08-19T12:30:42;15.63;;;11.93;;
353;SDS011;165;53.592;10.044;2022-08-19T12:33:07;13.37;;;12.67;;
353;SDS011;165;53.592;10.044;2022-08-19T12:35:33;15.50;;;14.30;;
353;SDS011;165;53.592;10.044;2022-08-19T12:37:59;16.53;;;15.60;;
353;SDS011;165;53.592;10.044;2022-08-19T12:40:26;33.53;;;30.60;;
353;SDS011;165;53.592;10.044;2022-08-19T12:42:52;15.00;;;13.53;;
353;SDS011;165;53.592;10.044;2022-08-19T12:45:18;16.53;;;13.03;;
353;SDS011;165;53.592;10.044;2022-08-19T12:47:44;21.53;;;20.47;;
353;SDS011;165;53.592;10.044;2022-08-19T12:50:11;15.70;;;14.90;;
353;SDS011;165;53.592;10.044;2022-08-19T12:52:36;14.93;;;13.73;;
353;SDS011;165;53.592;10.044;2022-08-19T12:55:04;13.73;;;12.17;;
353;SDS011;165;53.592;10.044;2022-08-19T12:57:31;14.57;;;13.87;;
353;SDS011;165;53.592;10.044;2022-08-19T13:00:04;14.53;;;13.83;;
353;SDS011;165;53.592;10.044;2022-08-19T13:02:36;14.30;;;13.23;;
353;SDS011;165;53.592;10.044;2022-08-19T13:05:03;13.60;;;12.90;;
353;SDS011;165;53.592;10.044;2022-08-19T13:07:31;12.67;;;11.97;;
353;SDS011;165;53.592;10.044;2022-08-19T13:09:57;11.63;;;11.03;;
353;SDS011;165;53.592;10.044;2022-08-19T13:12:23;13.07;;;12.33;;
353;SDS011;165;53.592;10.044;2022-08-19T13:14:51;13.90;;;13.20;;
353;SDS011;165;53.592;10.044;2022-08-19T13:17:17;16.93;;;13.10;;
353;SDS011;165;53.592;10.044;2022-08-19T13:19:43;13.70;;;13.00;;
353;SDS011;165;53.592;10.044;2022-08-19T13:22:09;14.70;;;11.60;;
353;SDS011;165;53.592;10.044;2022-08-19T13:24:37;13.40;;;12.70;;
353;SDS011;165;53.592;10.044;2022-08-19T13:27:02;11.83;;;11.23;;
353;SDS011;165;53.592;10.044;2022-08-19T13:29:29;15.90;;;13.00;;
353;SDS011;165;53.592;10.044;2022-08-19T13:32:13;14.77;;;14.00;;
353;SDS011;165;53.592;10.044;2022-08-19T13:34:57;11.97;;;11.37;;
353;SDS011;165;53.592;10.044;2022-08-19T13:37:23;12.23;;;11.67;;
353;SDS011;165;53.592;10.044;2022-08-19T13:40:08;13.00;;;12.30;;
353;SDS011;165;53.592;10.044;2022-08-19T13:42:39;13.60;;;12.70;;
353;SDS011;165;53.592;10.044;2022-08-19T13:45:05;12.67;;;12.00;;
353;SDS011;165;53.592;10.044;2022-08-19T13:47:33;11.77;;;11.13;;
353;SDS011;165;53.592;10.044;2022-08-19T13:50:07;13.10;;;12.40;;
353;SDS011;165;53.592;10.044;2022-08-19T13:52:34;13.60;;;11.47;;
353;SDS011;165;53.592;10.044;2022-08-19T13:55:00;13.63;;;12.93;;
353;SDS011;165;53.592;10.044;2022-08-19T13:57:25;12.17;;;11.57;;
353;SDS011;165;53.592;10.044;2022-08-19T13:59:51;12.10;;;11.50;;
353;SDS011;165;53.592;10.044;2022-08-19T14:02:16;12.90;;;12.20;;
353;SDS011;165;53.592;10.044;2022-08-19T14:04:42;13.03;;;12.33;;
353;SDS011;165;53.592;10.044;2022-08-19T14:07:07;16.50;;;11.80;;
353;SDS011;165;53.592;10.044;2022-08-19T14:09:34;12.73;;;11.87;;
353;SDS011;165;53.592;10.044;2022-08-19T14:11:59;12.13;;;11.53;;
353;SDS011;165;53.592;10.044;2022-08-19T14:14:25;12.33;;;11.73;;
353;SDS011;165;53.592;10.044;2022-08-19T14:16:51;13.97;;;13.27;;
353;SDS011;165;53.592;10.044;2022-08-19T14:19:16;14.73;;;11.43;;
353;SDS011;165;53.592;10.044;2022-08-19T14:21:42;11.27;;;10.67;;
353;SDS011;165;53.592;10.044;2022-08-19T14:24:08;12.73;;;12.03;;
353;SDS011;165;53.592;10.044;2022-08-19T14:26:34;11.73;;;11.13;;
353;SDS011;165;53.592;10.044;2022-08-19T14:28:59;11.47;;;10.87;;
353;SDS011;165;53.592;10.044;2022-08-19T14:31:26;13.40;;;12.73;;
353;SDS011;165;53.592;10.044;2022-08-19T14:33:51;14.67;;;13.93;;
353;SDS011;165;53.592;10.044;2022-08-19T14:36:17;14.50;;;13.40;;
353;SDS011;165;53.592;10.044;2022-08-19T14:38:44;14.23;;;13.53;;
353;SDS011;165;53.592;10.044;2022-08-19T14:41:17;15.80;;;15.00;;
353;SDS011;165;53.592;10.044;2022-08-19T14:43:48;17.00;;;16.10;;
353;SDS011;165;53.592;10.044;2022-08-19T14:46:16;18.90;;;16.00;;
353;SDS011;165;53.592;10.044;2022-08-19T14:48:45;15.37;;;14.57;;
353;SDS011;165;53.592;10.044;2022-08-19T14:51:12;15.13;;;14.27;;
353;SDS011;165;53.592;10.044;2022-08-19T14:53:39;14.60;;;13.90;;
353;SDS011;165;53.592;10.044;2022-08-19T14:56:14;14.10;;;13.40;;
353;SDS011;165;53.592;10.044;2022-08-19T14:58:41;14.80;;;14.00;;
353;SDS011;165;53.592;10.044;2022-08-19T15:01:08;13.40;;;12.70;;
353;SDS011;165;53.592;10.044;2022-08-19T15:03:34;12.87;;;12.17;;
353;SDS011;165;53.592;10.044;2022-08-19T15:06:02;14.10;;;13.40;;
353;SDS011;165;53.592;10.044;2022-08-19T15:08:30;15.60;;;14.80;;
353;SDS011;165;53.592;10.044;2022-08-19T15:10:56;16.97;;;14.67;;
353;SDS011;165;53.592;10.044;2022-08-19T15:13:23;15.07;;;13.03;;
353;SDS011;165;53.592;10.044;2022-08-19T15:15:50;15.30;;;14.50;;